Time;durP1;ratioP1;P1;durP2;ratioP2;P2;SDS_P1;SDS_P2;PMS_P1;PMS_P2;Temp;Humidity;BMP_temperature;BMP_pressure;BME280_temperature;BME280_humidity;BME280_pressure;Samples;Min_cycle;Max_cycle;Signal;HPM_P1;HPM_P2
2022/05/22 00:02:20;;;;;;;7.78;5.13;;;;;;;;;;5133411;27;20461;-72
2022/05/22 00:04:47;;;;;;;8.05;5.03;;;;;;;;;;5133499;27;20401;-73
2022/05/22 00:07:13;;;;;;;8.07;5.25;;;;;;;;;;5133354;27;20098;-72
2022/05/22 00:09:41;;;;;;;12.50;6.38;;;;;;;;;;5133446;27;20381;-72
2022/05/22 00:12:09;;;;;;;10.63;5.32;;;;;;;;;;5132889;27;20527;-72
2022/05/22 00:14:35;;;;;;;10.45;5.28;;;;;;;;;;5139217;27;20487;-72
2022/05/22 00:17:02;;;;;;;7.75;5.13;;;;;;;;;;5148952;27;20030;-72
2022/05/22 00:19:33;;;;;;;10.75;5.22;;;;;;;;;;5148796;27;20053;-72
2022/05/22 00:22:01;;;;;;;9.52;5.05;;;;;;;;;;5148994;27;20354;-72
2022/05/22 00:24:31;;;;;;;8.27;5.55;;;;;;;;;;5153607;27;20034;-72
2022/05/22 00:27:00;;;;;;;8.80;5.40;;;;;;;;;;5154000;27;20050;-72
2022/05/22 00:29:27;;;;;;;15.18;4.88;;;;;;;;;;5152786;27;20054;-72
2022/05/22 00:31:53;;;;;;;10.70;4.88;;;;;;;;;;5133107;28;20024;-72
2022/05/22 00:34:20;;;;;;;7.15;5.03;;;;;;;;;;5133347;28;20385;-72
2022/05/22 00:36:47;;;;;;;9.15;4.80;;;;;;;;;;5127699;28;20436;-72
2022/05/22 00:39:14;;;;;;;8.55;5.57;;;;;;;;;;5128025;28;20434;-72
2022/05/22 00:41:41;;;;;;;10.30;4.60;;;;;;;;;;5127809;28;20091;-72
2022/05/22 00:44:08;;;;;;;11.23;5.10;;;;;;;;;;5127863;28;20029;-72
2022/05/22 00:46:36;;;;;;;10.18;4.93;;;;;;;;;;5144548;27;20037;-72
2022/05/22 00:49:06;;;;;;;12.88;5.15;;;;;;;;;;5153418;27;20030;-72
2022/05/22 00:51:44;;;;;;;8.25;4.85;;;;;;;;;;5153537;27;20023;-72
2022/05/22 00:54:20;;;;;;;8.25;4.60;;;;;;;;;;5153625;27;20574;-72
2022/05/22 00:56:49;;;;;;;6.63;4.65;;;;;;;;;;5153735;27;20023;-72
2022/05/22 00:59:20;;;;;;;9.68;4.47;;;;;;;;;;5148498;27;20031;-72
2022/05/22 01:01:48;;;;;;;14.77;4.80;;;;;;;;;;5140339;27;20146;-72
2022/05/22 01:04:17;;;;;;;12.48;4.90;;;;;;;;;;5127887;28;20489;-73
2022/05/22 01:06:44;;;;;;;8.77;4.45;;;;;;;;;;5127693;28;20023;-72
2022/05/22 01:09:10;;;;;;;7.00;4.32;;;;;;;;;;5131922;27;20034;-72
2022/05/22 01:11:38;;;;;;;8.27;4.27;;;;;;;;;;5136909;27;20016;-72
2022/05/22 01:14:13;;;;;;;6.93;4.20;;;;;;;;;;5136705;27;20031;-72
2022/05/22 01:16:40;;;;;;;10.67;4.20;;;;;;;;;;5136839;27;20041;-72
2022/05/22 01:19:15;;;;;;;14.20;4.32;;;;;;;;;;5136855;27;20028;-72
2022/05/22 01:21:44;;;;;;;10.73;4.23;;;;;;;;;;5131485;27;20019;-72
2022/05/22 01:24:10;;;;;;;8.73;4.28;;;;;;;;;;5132692;27;20031;-72
2022/05/22 01:26:37;;;;;;;9.27;4.20;;;;;;;;;;5131445;27;20477;-72
2022/05/22 01:29:04;;;;;;;10.00;4.20;;;;;;;;;;5131261;27;20443;-72
2022/05/22 01:31:31;;;;;;;10.57;4.80;;;;;;;;;;5135121;27;20019;-72
2022/05/22 01:33:57;;;;;;;12.53;4.93;;;;;;;;;;5136301;27;20110;-74
2022/05/22 01:36:24;;;;;;;7.77;3.87;;;;;;;;;;5136143;27;20015;-75
2022/05/22 01:38:51;;;;;;;6.53;4.10;;;;;;;;;;5156406;27;20019;-74
2022/05/22 01:41:18;;;;;;;13.20;4.50;;;;;;;;;;5156876;27;20037;-74
2022/05/22 01:43:44;;;;;;;6.30;3.90;;;;;;;;;;5153341;27;20027;-74
2022/05/22 01:46:11;;;;;;;7.87;3.93;;;;;;;;;;5151713;27;20015;-74
2022/05/22 01:48:38;;;;;;;13.23;4.00;;;;;;;;;;5151628;27;20083;-74
2022/05/22 01:51:05;;;;;;;8.77;4.07;;;;;;;;;;5151504;27;20058;-74
2022/05/22 01:53:32;;;;;;;8.00;3.40;;;;;;;;;;5143798;27;20473;-74
2022/05/22 01:55:59;;;;;;;9.43;4.20;;;;;;;;;;5135920;27;20051;-74
2022/05/22 01:58:26;;;;;;;11.63;4.43;;;;;;;;;;5135442;27;20098;-74
2022/05/22 02:00:53;;;;;;;11.43;3.60;;;;;;;;;;5137082;27;20019;-74
2022/05/22 02:03:19;;;;;;;7.83;3.90;;;;;;;;;;5147574;27;20031;-74
2022/05/22 02:05:46;;;;;;;8.60;4.03;;;;;;;;;;5133018;27;20050;-74
2022/05/22 02:08:19;;;;;;;6.13;3.50;;;;;;;;;;5130692;27;20062;-74
2022/05/22 02:10:47;;;;;;;9.27;4.20;;;;;;;;;;5130262;27;20076;-74
2022/05/22 02:13:18;;;;;;;9.27;3.37;;;;;;;;;;5130467;27;20470;-74
2022/05/22 02:15:45;;;;;;;5.63;3.50;;;;;;;;;;5132083;27;20071;-74
2022/05/22 02:18:12;;;;;;;7.67;3.70;;;;;;;;;;5146770;27;20441;-74
2022/05/22 02:20:39;;;;;;;8.60;3.73;;;;;;;;;;5155998;27;20030;-74
2022/05/22 02:23:06;;;;;;;7.43;3.50;;;;;;;;;;5155705;27;20022;-74
2022/05/22 02:25:39;;;;;;;5.63;3.23;;;;;;;;;;5156120;27;20027;-74
2022/05/22 02:28:08;;;;;;;16.85;3.20;;;;;;;;;;5153718;27;20477;-74
2022/05/22 02:30:37;;;;;;;14.33;3.13;;;;;;;;;;5150577;27;20492;-74
2022/05/22 02:33:04;;;;;;;8.47;3.70;;;;;;;;;;5149587;27;20014;-74
2022/05/22 02:35:31;;;;;;;19.97;4.73;;;;;;;;;;5130216;27;20027;-74
2022/05/22 02:37:58;;;;;;;18.13;3.83;;;;;;;;;;5131633;27;20027;-74
2022/05/22 02:40:27;;;;;;;9.30;3.97;;;;;;;;;;5135285;27;20073;-74
2022/05/22 02:42:54;;;;;;;6.70;3.97;;;;;;;;;;5134675;27;20385;-74
2022/05/22 02:45:22;;;;;;;7.37;3.57;;;;;;;;;;5134723;27;20023;-74
2022/05/22 02:47:49;;;;;;;8.80;3.70;;;;;;;;;;5134623;27;20023;-74
2022/05/22 02:50:17;;;;;;;7.83;3.27;;;;;;;;;;5134123;27;20504;-73
2022/05/22 02:52:44;;;;;;;8.00;3.63;;;;;;;;;;5129646;27;20016;-74
2022/05/22 02:55:11;;;;;;;7.10;3.20;;;;;;;;;;5129796;27;20037;-73
2022/05/22 02:57:39;;;;;;;11.70;3.80;;;;;;;;;;5129476;27;20031;-74
2022/05/22 03:00:10;;;;;;;11.03;3.97;;;;;;;;;;5111820;27;20386;-73
2022/05/22 03:02:37;;;;;;;12.67;3.33;;;;;;;;;;5134623;27;20023;-74
2022/05/22 03:05:04;;;;;;;12.53;3.77;;;;;;;;;;5137196;27;20316;-73
2022/05/22 03:07:30;;;;;;;10.17;3.57;;;;;;;;;;5155161;27;20023;-74
2022/05/22 03:09:57;;;;;;;9.00;3.90;;;;;;;;;;5153515;27;20023;-74
2022/05/22 03:12:25;;;;;;;9.53;4.03;;;;;;;;;;5133691;27;20470;-74
2022/05/22 03:14:54;;;;;;;7.30;3.53;;;;;;;;;;5129183;27;20027;-74
2022/05/22 03:17:21;;;;;;;9.43;3.40;;;;;;;;;;5129255;27;20080;-74
2022/05/22 03:19:48;;;;;;;9.93;3.97;;;;;;;;;;5129352;27;20298;-74
2022/05/22 03:22:15;;;;;;;11.03;3.80;;;;;;;;;;5129215;27;20034;-74
2022/05/22 03:24:42;;;;;;;5.97;3.30;;;;;;;;;;5133690;27;20373;-74
2022/05/22 03:27:10;;;;;;;9.27;4.67;;;;;;;;;;5134301;27;20496;-74
2022/05/22 03:29:38;;;;;;;9.83;3.80;;;;;;;;;;5143074;27;20030;-74
2022/05/22 03:32:05;;;;;;;9.27;3.40;;;;;;;;;;5133977;27;20027;-74
2022/05/22 03:34:31;;;;;;;10.03;4.17;;;;;;;;;;5133229;27;20042;-74
2022/05/22 03:36:58;;;;;;;9.83;4.63;;;;;;;;;;5128562;27;20027;-74
2022/05/22 03:39:25;;;;;;;16.20;5.40;;;;;;;;;;5128827;27;20020;-74
2022/05/22 03:41:52;;;;;;;10.73;5.50;;;;;;;;;;5128386;27;20118;-74
2022/05/22 03:44:19;;;;;;;12.27;5.67;;;;;;;;;;5143540;27;20083;-74
2022/05/22 03:46:46;;;;;;;12.90;5.90;;;;;;;;;;5153422;27;20030;-74
2022/05/22 03:49:13;;;;;;;9.53;5.13;;;;;;;;;;5154636;27;20038;-74
2022/05/22 03:51:40;;;;;;;9.93;4.90;;;;;;;;;;5154391;27;20480;-74
2022/05/22 03:54:07;;;;;;;13.40;5.93;;;;;;;;;;5154549;27;20031;-74
2022/05/22 03:56:35;;;;;;;10.43;6.37;;;;;;;;;;5154358;27;20029;-74
2022/05/22 03:59:02;;;;;;;11.27;5.33;;;;;;;;;;5141836;27;20373;-74
2022/05/22 04:01:29;;;;;;;9.23;5.97;;;;;;;;;;5127982;27;20027;-73
2022/05/22 04:03:59;;;;;;;10.20;5.70;;;;;;;;;;5128313;27;20023;-73
2022/05/22 04:06:26;;;;;;;16.80;6.23;;;;;;;;;;5128773;27;20380;-72
2022/05/22 04:08:52;;;;;;;12.10;6.33;;;;;;;;;;5124871;27;20020;-73
2022/05/22 04:11:20;;;;;;;10.17;5.17;;;;;;;;;;5129049;27;20023;-72
2022/05/22 04:13:47;;;;;;;12.40;5.60;;;;;;;;;;5120876;27;20031;-72
2022/05/22 04:16:14;;;;;;;12.60;5.63;;;;;;;;;;5114685;28;20173;-73
2022/05/22 04:18:41;;;;;;;12.43;6.27;;;;;;;;;;5133055;27;20023;-73
2022/05/22 04:21:08;;;;;;;10.37;5.50;;;;;;;;;;5128360;27;20363;-73
2022/05/22 04:26:20;;;;;;;8.60;4.90;;;;;;;;;;5126504;27;20091;-73
2022/05/22 04:28:46;;;;;;;7.90;5.60;;;;;;;;;;5131537;27;20109;-72
2022/05/22 04:31:13;;;;;;;12.83;6.50;;;;;;;;;;5138145;27;20023;-73
2022/05/22 04:33:40;;;;;;;12.67;6.90;;;;;;;;;;5133017;27;20469;-72
2022/05/22 04:36:07;;;;;;;12.53;6.63;;;;;;;;;;5123880;27;20092;-72
2022/05/22 04:38:33;;;;;;;8.90;6.17;;;;;;;;;;5121781;28;20453;-73
2022/05/22 04:41:01;;;;;;;14.17;6.30;;;;;;;;;;5115302;28;20431;-73
2022/05/22 04:43:29;;;;;;;15.40;5.67;;;;;;;;;;5122674;28;20374;-72
2022/05/22 04:45:56;;;;;;;10.57;6.50;;;;;;;;;;5121450;27;20020;-70
2022/05/22 04:48:23;;;;;;;15.60;6.87;;;;;;;;;;5113948;27;20042;-73
2022/05/22 04:50:50;;;;;;;12.93;5.97;;;;;;;;;;5149484;27;20026;-72
2022/05/22 04:53:19;;;;;;;10.57;6.27;;;;;;;;;;5153804;27;20022;-73
2022/05/22 04:55:46;;;;;;;11.37;6.47;;;;;;;;;;5135503;27;20035;-72
2022/05/22 04:58:13;;;;;;;9.93;5.77;;;;;;;;;;5136180;27;20057;-72
2022/05/22 05:00:40;;;;;;;10.60;6.40;;;;;;;;;;5136263;27;20023;-73
2022/05/22 05:03:07;;;;;;;15.60;6.30;;;;;;;;;;5125465;27;20031;-72
2022/05/22 05:05:34;;;;;;;26.60;7.57;;;;;;;;;;5129974;27;20505;-73
2022/05/22 05:08:00;;;;;;;20.73;6.10;;;;;;;;;;5131876;27;20027;-72
2022/05/22 05:10:27;;;;;;;10.43;5.53;;;;;;;;;;5129743;27;20033;-73
2022/05/22 05:12:54;;;;;;;15.83;7.03;;;;;;;;;;5143581;27;20030;-72
2022/05/22 05:15:23;;;;;;;15.07;6.87;;;;;;;;;;5139967;27;20431;-72
2022/05/22 05:17:50;;;;;;;8.63;5.67;;;;;;;;;;5119988;27;20027;-72
2022/05/22 05:20:20;;;;;;;8.13;5.97;;;;;;;;;;5117407;27;20027;-72
2022/05/22 05:22:47;;;;;;;14.13;6.37;;;;;;;;;;5117079;27;20039;-72
2022/05/22 05:25:14;;;;;;;11.23;6.60;;;;;;;;;;5123919;27;20027;-72
2022/05/22 05:27:41;;;;;;;12.80;7.03;;;;;;;;;;5138749;27;20489;-72
2022/05/22 05:30:09;;;;;;;12.87;7.83;;;;;;;;;;5142495;27;20074;-72
2022/05/22 05:32:35;;;;;;;9.40;6.60;;;;;;;;;;5131631;27;20027;-72
2022/05/22 05:35:04;;;;;;;15.60;7.73;;;;;;;;;;5123084;27;20035;-72
2022/05/22 05:37:31;;;;;;;16.43;7.83;;;;;;;;;;5111264;28;20019;-72
2022/05/22 05:39:58;;;;;;;12.33;7.63;;;;;;;;;;5133567;27;20075;-73
2022/05/22 05:42:24;;;;;;;15.10;7.47;;;;;;;;;;5115521;28;20024;-72
2022/05/22 05:44:51;;;;;;;11.13;7.47;;;;;;;;;;5120198;27;20423;-72
2022/05/22 05:47:18;;;;;;;13.93;8.03;;;;;;;;;;5136274;27;20081;-72
2022/05/22 05:49:45;;;;;;;12.37;6.73;;;;;;;;;;5132175;27;20034;-72
2022/05/22 05:52:11;;;;;;;16.87;7.43;;;;;;;;;;5113113;27;20378;-73
2022/05/22 05:54:38;;;;;;;15.03;8.53;;;;;;;;;;5132182;27;20077;-73
2022/05/22 05:57:05;;;;;;;14.23;7.57;;;;;;;;;;5117959;27;20030;-72
2022/05/22 05:59:33;;;;;;;15.43;8.30;;;;;;;;;;5130473;27;20038;-72
2022/05/22 06:02:00;;;;;;;13.30;7.77;;;;;;;;;;5137972;27;20023;-74
2022/05/22 06:04:27;;;;;;;12.60;7.87;;;;;;;;;;5135488;27;20023;-74
2022/05/22 06:06:54;;;;;;;11.03;6.73;;;;;;;;;;5132800;27;20024;-74
2022/05/22 06:09:21;;;;;;;15.93;7.10;;;;;;;;;;5134648;27;20521;-74
2022/05/22 06:11:47;;;;;;;15.70;6.37;;;;;;;;;;5135647;27;20026;-74
2022/05/22 06:14:16;;;;;;;12.93;6.77;;;;;;;;;;5129942;27;20151;-74
2022/05/22 06:16:42;;;;;;;11.03;7.13;;;;;;;;;;5146154;27;20150;-74
2022/05/22 06:19:09;;;;;;;15.23;6.47;;;;;;;;;;5150725;27;20101;-73
2022/05/22 06:21:36;;;;;;;15.80;8.30;;;;;;;;;;5150191;27;20030;-74
2022/05/22 06:24:02;;;;;;;11.17;7.73;;;;;;;;;;5154586;27;20031;-74
2022/05/22 06:26:29;;;;;;;13.90;7.80;;;;;;;;;;5156051;27;20075;-74
2022/05/22 06:28:56;;;;;;;13.83;7.60;;;;;;;;;;5155988;27;20027;-74
2022/05/22 06:31:24;;;;;;;12.87;6.83;;;;;;;;;;5150999;27;20019;-74
2022/05/22 06:33:50;;;;;;;14.60;7.90;;;;;;;;;;5135021;27;20035;-74
2022/05/22 06:36:17;;;;;;;13.83;8.57;;;;;;;;;;5131072;27;20030;-74
2022/05/22 06:41:29;;;;;;;11.50;7.80;;;;;;;;;;5129706;27;20089;-74
2022/05/22 06:43:57;;;;;;;15.13;9.17;;;;;;;;;;5129358;27;20063;-74
2022/05/22 06:46:30;;;;;;;12.63;8.10;;;;;;;;;;5133575;27;20019;-74
2022/05/22 06:48:58;;;;;;;9.90;6.87;;;;;;;;;;5155313;27;20027;-74
2022/05/22 06:51:24;;;;;;;18.03;6.93;;;;;;;;;;5155526;27;20019;-74
2022/05/22 06:53:51;;;;;;;14.73;9.00;;;;;;;;;;5155460;27;20037;-74
2022/05/22 06:56:18;;;;;;;11.57;8.27;;;;;;;;;;5155566;27;20023;-74
2022/05/22 06:58:45;;;;;;;10.67;8.03;;;;;;;;;;5150829;27;20381;-74
2022/05/22 07:01:14;;;;;;;13.80;6.83;;;;;;;;;;5149960;27;20027;-74
2022/05/22 07:03:41;;;;;;;14.57;8.40;;;;;;;;;;5139970;27;20113;-74
2022/05/22 07:06:07;;;;;;;17.70;9.70;;;;;;;;;;5128591;27;20072;-74
2022/05/22 07:08:34;;;;;;;15.87;9.20;;;;;;;;;;5132771;27;20491;-74
2022/05/22 07:13:46;;;;;;;11.38;7.28;;;;;;;;;;5134307;27;20053;-74
2022/05/22 07:16:13;;;;;;;13.40;8.20;;;;;;;;;;5133366;27;20027;-74
2022/05/22 07:18:40;;;;;;;13.80;8.60;;;;;;;;;;5135695;27;20035;-74
2022/05/22 07:21:06;;;;;;;13.80;8.37;;;;;;;;;;5150500;27;20544;-74
2022/05/22 07:23:33;;;;;;;11.73;7.87;;;;;;;;;;5149344;27;20442;-74
2022/05/22 07:26:00;;;;;;;17.77;9.97;;;;;;;;;;5149435;27;20023;-73
2022/05/22 07:28:26;;;;;;;13.80;8.23;;;;;;;;;;5149502;27;20354;-74
2022/05/22 07:30:53;;;;;;;10.97;7.17;;;;;;;;;;5152575;27;20101;-74
2022/05/22 07:33:20;;;;;;;15.33;7.80;;;;;;;;;;5154867;27;20023;-74
2022/05/22 07:35:56;;;;;;;14.33;8.90;;;;;;;;;;5140231;27;20019;-74
2022/05/22 07:38:23;;;;;;;11.87;7.83;;;;;;;;;;5133962;27;20031;-74
2022/05/22 07:40:50;;;;;;;13.50;7.83;;;;;;;;;;5134019;27;20026;-74
2022/05/22 07:43:17;;;;;;;11.47;7.83;;;;;;;;;;5129929;27;20103;-74
2022/05/22 07:45:44;;;;;;;13.47;7.80;;;;;;;;;;5128440;27;20485;-74
2022/05/22 07:48:11;;;;;;;16.70;9.37;;;;;;;;;;5128310;27;20084;-74
2022/05/22 07:50:37;;;;;;;15.93;9.83;;;;;;;;;;5132510;27;20021;-74
2022/05/22 07:53:04;;;;;;;13.20;9.67;;;;;;;;;;5151706;27;20022;-74
2022/05/22 07:55:31;;;;;;;12.97;7.77;;;;;;;;;;5154187;27;20037;-74
2022/05/22 07:57:57;;;;;;;15.57;7.97;;;;;;;;;;5154269;27;20377;-74
2022/05/22 08:00:24;;;;;;;12.03;7.90;;;;;;;;;;5154352;27;20018;-74
2022/05/22 08:02:51;;;;;;;15.33;9.27;;;;;;;;;;5154044;27;20448;-74
2022/05/22 08:05:18;;;;;;;19.80;10.13;;;;;;;;;;5151276;27;20023;-73
2022/05/22 08:07:45;;;;;;;13.77;9.10;;;;;;;;;;5135213;27;20046;-74
2022/05/22 08:10:13;;;;;;;14.90;8.57;;;;;;;;;;5127538;27;20031;-74
2022/05/22 08:12:41;;;;;;;19.00;9.27;;;;;;;;;;5128770;27;20142;-74
2022/05/22 08:15:08;;;;;;;12.30;8.33;;;;;;;;;;5130245;27;20035;-74
2022/05/22 08:17:38;;;;;;;14.57;9.00;;;;;;;;;;5133372;27;20500;-74
2022/05/22 08:20:05;;;;;;;14.03;8.90;;;;;;;;;;5133293;27;20103;-74
2022/05/22 08:22:32;;;;;;;14.37;8.90;;;;;;;;;;5135489;27;20026;-74
2022/05/22 08:25:00;;;;;;;14.03;7.90;;;;;;;;;;5153466;27;20031;-74
2022/05/22 08:27:27;;;;;;;13.93;7.63;;;;;;;;;;5151372;27;20046;-74
2022/05/22 08:29:54;;;;;;;14.87;7.77;;;;;;;;;;5146593;27;20165;-73
2022/05/22 08:32:21;;;;;;;13.47;8.10;;;;;;;;;;5127606;28;20077;-72
2022/05/22 08:34:48;;;;;;;14.67;8.87;;;;;;;;;;5127791;28;20114;-72
2022/05/22 08:37:16;;;;;;;14.90;7.40;;;;;;;;;;5129395;28;20015;-72
2022/05/22 08:39:42;;;;;;;12.87;8.20;;;;;;;;;;5133338;28;20071;-72
2022/05/22 08:42:10;;;;;;;14.73;9.00;;;;;;;;;;5132551;28;20020;-72
2022/05/22 08:44:39;;;;;;;14.07;8.80;;;;;;;;;;5141036;27;20034;-72
2022/05/22 08:47:11;;;;;;;16.23;9.77;;;;;;;;;;5153492;27;20058;-72
2022/05/22 08:49:48;;;;;;;11.57;8.10;;;;;;;;;;5131905;27;20031;-72
2022/05/22 08:52:17;;;;;;;13.87;8.67;;;;;;;;;;5127628;28;20098;-72
2022/05/22 08:54:48;;;;;;;13.77;8.63;;;;;;;;;;5127031;28;20534;-72
2022/05/22 09:00:11;;;;;;;15.03;8.17;;;;;;;;;;5130532;28;20065;-72
2022/05/22 09:02:45;;;;;;;14.70;8.87;;;;;;;;;;5144128;27;20023;-73
2022/05/22 09:05:14;;;;;;;15.95;7.72;;;;;;;;;;5153715;27;20064;-72
2022/05/22 09:07:59;;;;;;;13.70;8.83;;;;;;;;;;5153412;27;20041;-72
2022/05/22 09:10:46;;;;;;;13.17;8.00;;;;;;;;;;5153600;27;20051;-72
2022/05/22 09:13:32;;;;;;;11.67;7.67;;;;;;;;;;5148356;27;20488;-72
2022/05/22 09:16:05;;;;;;;12.17;7.73;;;;;;;;;;5148038;27;20030;-72
2022/05/22 09:18:34;;;;;;;14.77;8.50;;;;;;;;;;5134537;27;20023;-72
2022/05/22 09:21:04;;;;;;;10.97;7.13;;;;;;;;;;5126872;28;20024;-73
2022/05/22 09:23:31;;;;;;;11.53;7.70;;;;;;;;;;5132608;28;20028;-72
2022/05/22 09:26:06;;;;;;;14.57;8.40;;;;;;;;;;5132640;28;20147;-72
2022/05/22 09:28:53;;;;;;;13.77;8.97;;;;;;;;;;5114303;28;20373;-72
2022/05/22 09:31:19;;;;;;;14.43;8.10;;;;;;;;;;5132193;28;20016;-72
2022/05/22 09:34:04;;;;;;;15.67;8.73;;;;;;;;;;5142086;27;20084;-72
2022/05/22 09:36:49;;;;;;;18.40;8.60;;;;;;;;;;5151538;27;20018;-72
2022/05/22 09:39:22;;;;;;;14.35;8.68;;;;;;;;;;5150989;27;20018;-72
2022/05/22 09:42:18;;;;;;;10.17;7.43;;;;;;;;;;5151455;27;20106;-73
2022/05/22 09:44:53;;;;;;;11.10;7.07;;;;;;;;;;5136522;27;20043;-72
2022/05/22 09:47:35;;;;;;;16.00;8.53;;;;;;;;;;5156573;27;20026;-73
2022/05/22 09:50:14;;;;;;;13.17;8.37;;;;;;;;;;5142319;27;20019;-72
2022/05/22 09:52:46;;;;;;;15.13;9.40;;;;;;;;;;5136026;27;20027;-72
2022/05/22 09:55:19;;;;;;;12.37;7.73;;;;;;;;;;5135842;27;20031;-73
2022/05/22 09:58:04;;;;;;;12.87;7.47;;;;;;;;;;5131249;27;20474;-72
2022/05/22 10:00:47;;;;;;;18.77;9.27;;;;;;;;;;5130530;27;20018;-72
2022/05/22 10:03:23;;;;;;;18.20;9.00;;;;;;;;;;5130280;27;20393;-72
2022/05/22 10:05:53;;;;;;;15.97;8.37;;;;;;;;;;5142436;27;20141;-72
2022/05/22 10:08:27;;;;;;;12.10;7.93;;;;;;;;;;5156319;27;20033;-72
2022/05/22 10:10:58;;;;;;;14.47;8.70;;;;;;;;;;5156494;27;20381;-72
2022/05/22 10:13:29;;;;;;;12.87;8.60;;;;;;;;;;5156312;27;20023;-72
2022/05/22 10:16:14;;;;;;;20.03;8.83;;;;;;;;;;5156193;27;20106;-72
2022/05/22 10:18:48;;;;;;;12.98;8.82;;;;;;;;;;5155131;27;20077;-72
2022/05/22 10:21:19;;;;;;;14.87;7.73;;;;;;;;;;5138257;27;20950;-72
2022/05/22 10:23:55;;;;;;;14.60;8.13;;;;;;;;;;5129973;27;20024;-72
2022/05/22 10:26:40;;;;;;;14.43;9.37;;;;;;;;;;5130077;27;20059;-72
2022/05/22 10:29:13;;;;;;;18.92;9.93;;;;;;;;;;5131641;27;20385;-72
2022/05/22 10:31:52;;;;;;;13.63;8.27;;;;;;;;;;5135294;27;20493;-72
2022/05/22 10:34:19;;;;;;;16.10;7.27;;;;;;;;;;5134985;27;20223;-72
2022/05/22 10:36:51;;;;;;;14.77;7.63;;;;;;;;;;5145253;27;20407;-72
2022/05/22 10:39:19;;;;;;;13.33;7.60;;;;;;;;;;5155842;27;20023;-72
2022/05/22 10:44:35;;;;;;;14.53;6.57;;;;;;;;;;5149884;27;20048;-72
2022/05/22 10:47:02;;;;;;;10.97;6.83;;;;;;;;;;5150347;27;20023;-72
2022/05/22 10:49:47;;;;;;;16.50;8.50;;;;;;;;;;5149979;27;20026;-72
2022/05/22 10:52:22;;;;;;;19.05;8.10;;;;;;;;;;5144487;27;20026;-72
2022/05/22 10:54:50;;;;;;;17.42;8.02;;;;;;;;;;5134906;27;20042;-73
2022/05/22 10:57:19;;;;;;;13.33;7.30;;;;;;;;;;5142251;27;20500;-72
2022/05/22 10:59:47;;;;;;;13.10;6.47;;;;;;;;;;5155579;27;20138;-73
2022/05/22 11:02:19;;;;;;;14.83;7.43;;;;;;;;;;5155405;27;20030;-73
2022/05/22 11:04:46;;;;;;;12.83;7.10;;;;;;;;;;5151401;27;20011;-72
2022/05/22 11:07:13;;;;;;;11.87;7.03;;;;;;;;;;5149274;27;20023;-72
2022/05/22 11:10:03;;;;;;;12.03;7.10;;;;;;;;;;5149731;27;20027;-72
2022/05/22 11:12:29;;;;;;;12.47;6.07;;;;;;;;;;5130022;27;20488;-72
2022/05/22 11:15:05;;;;;;;10.47;6.40;;;;;;;;;;5133185;27;20043;-72
2022/05/22 11:17:32;;;;;;;10.93;5.83;;;;;;;;;;5133996;27;20053;-73
2022/05/22 11:20:02;;;;;;;11.03;6.70;;;;;;;;;;5134305;27;20042;-72
2022/05/22 11:22:38;;;;;;;14.10;6.73;;;;;;;;;;5134294;27;20473;-73
2022/05/22 11:25:11;;;;;;;11.53;6.53;;;;;;;;;;5134096;27;20023;-72
2022/05/22 11:27:56;;;;;;;11.73;6.37;;;;;;;;;;5139304;27;20473;-72
2022/05/22 11:30:41;;;;;;;9.35;5.70;;;;;;;;;;5149564;27;20058;-72
2022/05/22 11:33:26;;;;;;;14.50;7.20;;;;;;;;;;5149358;27;20094;-72
2022/05/22 11:35:58;;;;;;;9.80;6.10;;;;;;;;;;5150143;27;20038;-72
2022/05/22 11:38:40;;;;;;;13.10;7.93;;;;;;;;;;5154775;27;20499;-72
2022/05/22 11:41:13;;;;;;;12.43;7.13;;;;;;;;;;5154599;27;20369;-72
2022/05/22 11:43:59;;;;;;;12.70;7.20;;;;;;;;;;5141646;27;20126;-72
2022/05/22 11:46:26;;;;;;;15.13;7.17;;;;;;;;;;5133791;27;20052;-71
2022/05/22 11:49:12;;;;;;;10.03;6.43;;;;;;;;;;5130888;27;20508;-72
2022/05/22 11:51:57;;;;;;;9.50;6.20;;;;;;;;;;5128403;27;20043;-72
2022/05/22 11:54:42;;;;;;;10.43;5.97;;;;;;;;;;5128344;27;20436;-72
2022/05/22 11:57:09;;;;;;;12.07;6.32;;;;;;;;;;5127793;27;20015;-72
2022/05/22 12:00:00;;;;;;;10.30;6.30;;;;;;;;;;5144487;27;20031;-72
2022/05/22 12:02:29;;;;;;;9.87;6.37;;;;;;;;;;5154426;27;20023;-72
2022/05/22 12:05:15;;;;;;;11.53;5.93;;;;;;;;;;5154280;27;20031;-72
2022/05/22 12:08:17;;;;;;;13.65;8.10;;;;;;;;;;5153861;27;20098;-72
2022/05/22 12:10:47;;;;;;;8.97;5.23;;;;;;;;;;5068384;28;20032;-72
2022/05/22 12:13:13;;;;;;;16.07;7.17;;;;;;;;;;5134042;27;20062;-72
2022/05/22 12:15:45;;;;;;;12.00;5.80;;;;;;;;;;5134935;27;20035;-72
2022/05/22 12:18:14;;;;;;;12.53;6.77;;;;;;;;;;5127852;27;20084;-72
2022/05/22 12:20:47;;;;;;;10.00;6.37;;;;;;;;;;5129007;27;20023;-72
2022/05/22 12:23:14;;;;;;;10.97;6.37;;;;;;;;;;5133189;27;20034;-72
2022/05/22 12:26:01;;;;;;;15.40;6.20;;;;;;;;;;5133304;27;20027;-72
2022/05/22 12:28:36;;;;;;;10.50;6.00;;;;;;;;;;5133119;27;20049;-72
2022/05/22 12:31:05;;;;;;;13.33;6.70;;;;;;;;;;5140950;27;20060;-72
2022/05/22 12:33:33;;;;;;;9.73;6.27;;;;;;;;;;5150926;27;20022;-72
2022/05/22 12:36:00;;;;;;;10.03;5.60;;;;;;;;;;5148375;27;20047;-72
2022/05/22 12:38:27;;;;;;;12.50;6.63;;;;;;;;;;5148010;27;20021;-72
2022/05/22 12:41:15;;;;;;;11.03;6.40;;;;;;;;;;5148351;27;20069;-72
2022/05/22 12:43:42;;;;;;;13.60;7.23;;;;;;;;;;5150945;27;20048;-72
2022/05/22 12:46:11;;;;;;;13.87;7.20;;;;;;;;;;5150904;27;21368;-72
2022/05/22 12:48:39;;;;;;;15.60;6.10;;;;;;;;;;5153130;27;20033;-72
2022/05/22 12:51:09;;;;;;;10.77;6.13;;;;;;;;;;5153511;27;20491;-72
2022/05/22 12:53:37;;;;;;;14.20;7.57;;;;;;;;;;5153769;27;20443;-72
2022/05/22 12:56:23;;;;;;;14.77;7.07;;;;;;;;;;5150651;27;20075;-72
2022/05/22 12:58:56;;;;;;;22.67;6.85;;;;;;;;;;5148089;27;20099;-72
2022/05/22 13:01:24;;;;;;;16.13;6.63;;;;;;;;;;5135586;27;20015;-72
2022/05/22 13:03:52;;;;;;;23.07;7.47;;;;;;;;;;5127372;27;20023;-73
2022/05/22 13:06:20;;;;;;;16.67;6.90;;;;;;;;;;5130410;28;20372;-73
2022/05/22 13:08:58;;;;;;;16.83;7.10;;;;;;;;;;5136626;27;20066;-73
2022/05/22 13:11:30;;;;;;;20.13;6.97;;;;;;;;;;5136896;27;20019;-72
2022/05/22 13:13:57;;;;;;;19.23;7.50;;;;;;;;;;5136725;27;20030;-73
2022/05/22 13:16:28;;;;;;;14.33;6.97;;;;;;;;;;5152235;27;20098;-73
2022/05/22 13:18:56;;;;;;;21.77;8.17;;;;;;;;;;5153344;27;20428;-73
2022/05/22 13:21:35;;;;;;;21.13;8.73;;;;;;;;;;5136252;27;20440;-73
2022/05/22 13:24:06;;;;;;;13.80;8.90;;;;;;;;;;5112504;27;20069;-73
2022/05/22 13:26:33;;;;;;;16.10;8.20;;;;;;;;;;5114634;27;20373;-73
2022/05/22 13:29:10;;;;;;;18.90;8.27;;;;;;;;;;5135058;27;20080;-73
2022/05/22 13:31:51;;;;;;;15.57;8.50;;;;;;;;;;5136031;27;20027;-72
2022/05/22 13:34:23;;;;;;;19.93;8.33;;;;;;;;;;5115575;28;20028;-73
2022/05/22 13:36:57;;;;;;;13.50;8.87;;;;;;;;;;5121892;27;20374;-73
2022/05/22 13:39:32;;;;;;;19.58;9.63;;;;;;;;;;5136252;27;20023;-73
2022/05/22 13:42:13;;;;;;;14.55;7.70;;;;;;;;;;5124397;27;20016;-73
2022/05/22 13:44:55;;;;;;;15.87;8.63;;;;;;;;;;5109951;28;20099;-73
2022/05/22 13:47:40;;;;;;;13.97;8.30;;;;;;;;;;5130846;27;20023;-73
2022/05/22 13:53:10;;;;;;;24.60;11.03;;;;;;;;;;5116818;27;20134;-73
2022/05/22 13:55:42;;;;;;;18.50;10.77;;;;;;;;;;5115488;28;20038;-74
2022/05/22 13:58:35;;;;;;;22.13;10.50;;;;;;;;;;5116461;27;20583;-73
2022/05/22 14:01:13;;;;;;;17.67;9.83;;;;;;;;;;5117276;27;20039;-73
2022/05/22 14:03:39;;;;;;;13.03;8.67;;;;;;;;;;5133236;27;20389;-73
2022/05/22 14:06:08;;;;;;;18.43;8.47;;;;;;;;;;5111122;27;20028;-73
2022/05/22 14:08:35;;;;;;;13.50;8.27;;;;;;;;;;5113328;27;20430;-74
2022/05/22 14:11:08;;;;;;;12.87;8.10;;;;;;;;;;5130358;27;20027;-73
2022/05/22 14:13:36;;;;;;;17.60;9.53;;;;;;;;;;5132120;27;20028;-73
2022/05/22 14:16:04;;;;;;;15.03;7.70;;;;;;;;;;5135573;27;20062;-74
2022/05/22 14:18:33;;;;;;;12.73;6.87;;;;;;;;;;5135748;27;20023;-73
2022/05/22 14:21:07;;;;;;;13.47;7.40;;;;;;;;;;5124971;27;20173;-73
2022/05/22 14:24:51;;;;;;;23.77;7.38;;;;;;;;;;5131931;27;20035;-74
2022/05/22 14:26:22;;;;;;;15.07;7.63;;;;;;;;;;5128353;27;20058;-73
2022/05/22 14:28:50;;;;;;;13.60;7.37;;;;;;;;;;5130114;27;20015;-74
2022/05/22 14:31:19;;;;;;;14.30;7.73;;;;;;;;;;5119055;27;20031;-74
2022/05/22 14:33:47;;;;;;;18.17;7.47;;;;;;;;;;5109484;28;20504;-74
2022/05/22 14:36:20;;;;;;;15.20;7.57;;;;;;;;;;5136430;27;20034;-74
2022/05/22 14:38:48;;;;;;;15.57;7.40;;;;;;;;;;5135098;27;20063;-74
2022/05/22 14:41:17;;;;;;;11.63;6.73;;;;;;;;;;5125058;27;20050;-74
2022/05/22 14:43:56;;;;;;;14.30;7.50;;;;;;;;;;5122939;27;20445;-74
2022/05/22 14:46:22;;;;;;;12.40;6.07;;;;;;;;;;5135311;27;20019;-74
2022/05/22 14:48:49;;;;;;;14.27;6.30;;;;;;;;;;5127476;27;20092;-75
2022/05/22 14:51:32;;;;;;;9.50;6.03;;;;;;;;;;5129665;27;20131;-74
2022/05/22 14:54:25;;;;;;;12.30;6.53;;;;;;;;;;5137639;27;20019;-75
2022/05/22 14:56:58;;;;;;;13.87;6.50;;;;;;;;;;5142531;27;20023;-74
2022/05/22 14:59:39;;;;;;;15.33;6.57;;;;;;;;;;5131937;27;20090;-73
2022/05/22 15:02:10;;;;;;;8.87;5.50;;;;;;;;;;5133457;27;20023;-75
2022/05/22 15:04:37;;;;;;;13.10;6.13;;;;;;;;;;5149045;27;20054;-74
2022/05/22 15:07:18;;;;;;;13.67;6.57;;;;;;;;;;5145964;27;20038;-73
2022/05/22 15:09:52;;;;;;;11.30;5.93;;;;;;;;;;5139533;27;20027;-72